createdAt,value
2018-08-11T00:00:33.069Z,0.93
2018-08-11T00:03:01.336Z,2.17
2018-08-11T00:05:29.597Z,0.80
2018-08-11T00:07:57.866Z,2.37
2018-08-11T00:10:26.142Z,0.95
2018-08-11T00:12:54.386Z,0.85
2018-08-11T00:15:22.608Z,1.07
2018-08-11T00:17:50.878Z,0.45
2018-08-11T00:20:25.068Z,1.98
2018-08-11T00:22:53.296Z,2.40
2018-08-11T00:25:21.549Z,0.30
2018-08-11T00:27:49.817Z,3.00
2018-08-11T00:30:19.738Z,0.53
2018-08-11T00:32:48.101Z,2.20
2018-08-11T00:35:16.850Z,1.40
2018-08-11T00:37:45.464Z,4.70
2018-08-11T00:40:15.926Z,1.37
2018-08-11T00:42:45.240Z,3.62
2018-08-11T00:45:14.522Z,1.32
2018-08-11T00:47:42.773Z,0.35
2018-08-11T00:50:15.471Z,0.82
2018-08-11T00:52:43.714Z,1.77
2018-08-11T00:55:13.363Z,0.70
2018-08-11T00:57:41.657Z,1.42
2018-08-11T01:00:14.245Z,1.27
2018-08-11T01:02:42.650Z,2.40
2018-08-11T01:05:13.416Z,1.00
2018-08-11T01:07:42.621Z,1.15
2018-08-11T01:10:11.692Z,0.40
2018-08-11T01:12:40.729Z,0.62
2018-08-11T01:15:12.328Z,1.98
2018-08-11T01:17:40.611Z,0.68
2018-08-11T01:20:11.499Z,1.00
2018-08-11T01:22:40.825Z,2.12
2018-08-11T01:25:09.938Z,3.02
2018-08-11T01:27:44.969Z,1.00
2018-08-11T01:30:17.910Z,1.65
2018-08-11T01:32:46.144Z,3.27
2018-08-11T01:35:14.388Z,0.72
2018-08-11T01:37:44.290Z,2.25
2018-08-11T01:40:13.678Z,1.02
2018-08-11T01:42:45.975Z,3.15
2018-08-11T01:45:15.269Z,2.75
2018-08-11T01:47:43.784Z,2.90
2018-08-11T01:50:13.402Z,1.12
2018-08-11T01:52:43.684Z,2.55
2018-08-11T01:55:13.639Z,2.00
2018-08-11T01:57:42.861Z,0.72
2018-08-11T02:00:12.997Z,2.00
2018-08-11T02:02:41.511Z,1.82
2018-08-11T02:05:11.029Z,2.47
2018-08-11T02:07:40.239Z,1.62
2018-08-11T02:10:13.431Z,3.22
2018-08-11T02:12:41.714Z,1.30
2018-08-11T02:15:11.929Z,3.80
2018-08-11T02:17:40.161Z,2.40
2018-08-11T02:20:11.916Z,2.40
2018-08-11T02:22:40.596Z,2.27
2018-08-11T02:25:09.817Z,3.17
2018-08-11T02:27:38.914Z,3.60
2018-08-11T02:30:11.344Z,2.22
2018-08-11T02:32:39.818Z,2.05
2018-08-11T02:35:08.934Z,3.55
2018-08-11T02:37:37.373Z,1.37
2018-08-11T02:40:07.312Z,4.12
2018-08-11T02:42:36.300Z,2.10
2018-08-11T02:45:05.095Z,3.15
2018-08-11T02:47:33.725Z,4.72
2018-08-11T02:50:01.985Z,4.80
2018-08-11T02:52:30.211Z,2.50
2018-08-11T02:54:58.500Z,2.98
2018-08-11T02:57:26.728Z,4.22
2018-08-11T02:59:54.960Z,2.90
2018-08-11T03:02:23.247Z,3.55
2018-08-11T03:04:51.397Z,2.40
2018-08-11T03:07:19.683Z,3.27
2018-08-11T03:09:47.925Z,2.20
2018-08-11T03:12:16.161Z,2.75
2018-08-11T03:14:44.573Z,3.00
2018-08-11T03:17:13.839Z,4.78
2018-08-11T03:19:42.078Z,4.75
2018-08-11T03:22:11.498Z,4.22
2018-08-11T03:24:39.734Z,1.87
2018-08-11T03:27:07.985Z,2.05
2018-08-11T03:29:36.290Z,2.62
2018-08-11T03:32:04.528Z,3.37
2018-08-11T03:34:32.754Z,4.47
2018-08-11T03:37:00.994Z,2.30
2018-08-11T03:39:29.249Z,3.85
2018-08-11T03:41:57.481Z,2.65
2018-08-11T03:44:25.894Z,2.77
2018-08-11T03:46:54.144Z,3.65
2018-08-11T03:49:22.370Z,4.12
2018-08-11T03:51:50.610Z,3.70
2018-08-11T03:54:18.835Z,4.65
2018-08-11T03:56:47.068Z,3.15
2018-08-11T03:59:15.313Z,2.47
2018-08-11T04:01:43.542Z,2.30
2018-08-11T04:04:12.068Z,2.87
2018-08-11T04:06:40.361Z,2.37
2018-08-11T04:09:09.765Z,3.72
2018-08-11T04:11:37.990Z,6.30
2018-08-11T04:14:06.594Z,2.10
2018-08-11T04:16:34.829Z,3.45
2018-08-11T04:19:03.065Z,5.42
2018-08-11T04:21:31.318Z,2.80
2018-08-11T04:23:59.608Z,5.08
2018-08-11T04:26:28.004Z,2.37
2018-08-11T04:28:56.242Z,5.87
2018-08-11T04:31:24.498Z,2.35
2018-08-11T04:33:53.245Z,2.60
2018-08-11T04:36:21.485Z,3.58
2018-08-11T04:38:49.752Z,4.10
2018-08-11T04:41:17.983Z,3.47
2018-08-11T04:43:46.206Z,3.42
2018-08-11T04:46:14.479Z,3.17
2018-08-11T04:48:42.729Z,3.45
2018-08-11T04:51:10.973Z,3.55
2018-08-11T04:53:39.201Z,4.03
2018-08-11T04:56:07.469Z,2.17
2018-08-11T04:58:35.976Z,4.28
2018-08-11T05:01:04.237Z,3.50
2018-08-11T05:03:32.500Z,3.17
2018-08-11T05:06:00.774Z,3.20
2018-08-11T05:08:29.025Z,2.80
2018-08-11T05:10:57.328Z,4.90
2018-08-11T05:13:25.605Z,2.92
2018-08-11T05:15:53.909Z,2.98
2018-08-11T05:18:22.154Z,1.90
2018-08-11T05:20:50.415Z,3.90
2018-08-11T05:23:18.674Z,2.58
2018-08-11T05:25:47.026Z,2.25
2018-08-11T05:28:15.326Z,7.20
2018-08-11T05:33:18.433Z,4.15
2018-08-11T05:35:46.634Z,4.05
2018-08-11T05:38:14.881Z,2.85
2018-08-11T05:40:43.127Z,4.08
2018-08-11T05:43:11.427Z,4.55
2018-08-11T05:45:39.708Z,3.30
2018-08-11T05:48:07.960Z,4.95
2018-08-11T05:50:36.195Z,4.35
2018-08-11T05:53:04.457Z,1.77
2018-08-11T05:55:32.713Z,4.97
2018-08-11T05:58:00.969Z,3.15
2018-08-11T06:00:29.200Z,3.83
2018-08-11T06:02:57.441Z,5.08
2018-08-11T06:05:25.752Z,2.52
2018-08-11T06:07:54.035Z,3.92
2018-08-11T06:10:22.340Z,3.33
2018-08-11T06:12:50.567Z,3.08
2018-08-11T06:15:18.882Z,3.27
2018-08-11T06:17:47.125Z,2.80
2018-08-11T06:20:15.373Z,2.95
2018-08-11T06:22:43.666Z,22.10
2018-08-11T06:25:12.552Z,21.33
2018-08-11T06:27:41.243Z,16.40
2018-08-11T06:30:10.429Z,14.80
2018-08-11T06:32:39.003Z,11.40
2018-08-11T06:35:08.196Z,21.42
2018-08-11T06:37:36.901Z,7.75
2018-08-11T06:40:06.076Z,6.50
2018-08-11T06:42:34.330Z,7.62
2018-08-11T06:45:02.582Z,6.50
2018-08-11T06:47:31.000Z,3.95
2018-08-11T06:49:59.740Z,4.20
2018-08-11T06:52:28.301Z,4.75
2018-08-11T06:54:56.552Z,3.45
2018-08-11T06:57:24.803Z,3.25
2018-08-11T06:59:53.051Z,2.95
2018-08-11T07:02:21.413Z,3.52
2018-08-11T07:04:49.711Z,2.12
2018-08-11T07:07:17.971Z,3.05
2018-08-11T07:09:46.293Z,2.75
2018-08-11T07:12:14.545Z,2.55
2018-08-11T07:14:42.939Z,3.62
2018-08-11T07:17:12.523Z,3.10
2018-08-11T07:19:42.116Z,4.15
2018-08-11T07:22:10.837Z,2.85
2018-08-11T07:24:42.694Z,1.37
2018-08-11T07:27:14.035Z,1.70
2018-08-11T07:29:42.811Z,3.10
2018-08-11T07:32:11.842Z,4.20
2018-08-11T07:34:40.206Z,2.42
2018-08-11T07:37:15.109Z,2.42
2018-08-11T07:39:45.653Z,4.40
2018-08-11T07:42:14.103Z,4.53
2018-08-11T07:44:42.459Z,3.08
2018-08-11T07:47:11.533Z,3.40
2018-08-11T07:49:40.861Z,5.15
2018-08-11T07:52:09.149Z,2.20
2018-08-11T07:54:37.514Z,3.60
2018-08-11T07:57:06.188Z,2.30
2018-08-11T07:59:34.547Z,3.67
2018-08-11T08:02:02.805Z,3.40
2018-08-11T08:04:31.045Z,4.00
2018-08-11T08:06:59.285Z,3.55
2018-08-11T08:09:28.734Z,3.83
2018-08-11T08:11:56.997Z,6.58
2018-08-11T08:14:25.283Z,1.67
2018-08-11T08:16:53.518Z,0.68
2018-08-11T08:19:21.775Z,1.80
2018-08-11T08:21:50.277Z,1.30
2018-08-11T08:24:18.492Z,3.75
2018-08-11T08:26:53.185Z,1.92
2018-08-11T08:29:21.390Z,2.12
2018-08-11T08:31:49.633Z,4.03
2018-08-11T08:34:17.905Z,4.85
2018-08-11T08:36:46.177Z,3.17
2018-08-11T08:39:14.556Z,1.65
2018-08-11T08:41:42.832Z,4.45
2018-08-11T08:44:11.232Z,1.10
2018-08-11T08:46:39.700Z,2.17
2018-08-11T08:49:08.097Z,2.12
2018-08-11T08:51:36.631Z,2.25
2018-08-11T08:54:04.911Z,4.97
2018-08-11T08:56:33.183Z,1.77
2018-08-11T08:59:01.523Z,5.28
2018-08-11T09:01:29.754Z,3.47
2018-08-11T09:03:58.148Z,2.25
2018-08-11T09:06:26.401Z,1.20
2018-08-11T09:08:54.633Z,1.77
2018-08-11T09:11:22.911Z,1.80
2018-08-11T09:13:51.201Z,5.15
2018-08-11T09:16:19.460Z,1.52
2018-08-11T09:18:47.812Z,5.22
2018-08-11T09:21:16.092Z,1.20
2018-08-11T09:23:44.367Z,3.02
2018-08-11T09:26:12.729Z,3.35
2018-08-11T09:28:41.128Z,2.50
2018-08-11T09:31:09.408Z,3.00
2018-08-11T09:33:37.737Z,1.30
2018-08-11T09:36:05.988Z,1.75
2018-08-11T09:38:34.409Z,2.40
2018-08-11T09:41:02.645Z,1.25
2018-08-11T09:43:30.893Z,2.40
2018-08-11T09:45:59.198Z,1.82
2018-08-11T09:48:27.470Z,6.10
2018-08-11T09:50:55.739Z,3.72
2018-08-11T09:53:23.999Z,1.37
2018-08-11T09:55:53.097Z,1.10
2018-08-11T09:58:21.440Z,1.67
2018-08-11T10:00:57.151Z,1.77
2018-08-11T10:03:26.575Z,3.55
2018-08-11T10:05:55.011Z,1.75
2018-08-11T10:08:23.323Z,2.98
2018-08-11T10:10:51.621Z,2.08
2018-08-11T10:13:19.856Z,1.25
2018-08-11T10:15:48.088Z,2.50
2018-08-11T10:18:16.455Z,1.40
2018-08-11T10:20:44.785Z,2.10
2018-08-11T10:23:13.907Z,4.00
2018-08-11T10:25:42.155Z,3.15
2018-08-11T10:28:10.449Z,2.40
2018-08-11T10:30:38.771Z,1.52
2018-08-11T10:33:07.142Z,2.40
2018-08-11T10:35:35.446Z,2.67
2018-08-11T10:38:03.722Z,1.82
2018-08-11T10:40:32.075Z,2.47
2018-08-11T10:43:00.334Z,3.40
2018-08-11T10:45:28.659Z,3.72
2018-08-11T10:47:56.945Z,0.85
2018-08-11T10:50:25.170Z,1.27
2018-08-11T10:52:53.440Z,1.45
2018-08-11T10:55:21.773Z,2.05
2018-08-11T10:57:50.083Z,3.33
2018-08-11T11:00:18.368Z,3.10
2018-08-11T11:02:46.768Z,1.30
2018-08-11T11:05:15.067Z,1.25
2018-08-11T11:07:43.345Z,1.40
2018-08-11T11:10:12.289Z,1.50
2018-08-11T11:12:40.546Z,3.92
2018-08-11T11:15:09.132Z,0.90
2018-08-11T11:17:37.616Z,2.60
2018-08-11T11:20:07.728Z,5.28
2018-08-11T11:22:36.018Z,3.20
2018-08-11T11:25:04.469Z,3.22
2018-08-11T11:27:32.737Z,1.50
2018-08-11T11:30:01.020Z,0.62
2018-08-11T11:32:35.954Z,1.77
2018-08-11T11:35:04.421Z,2.55
2018-08-11T11:37:32.746Z,3.22
2018-08-11T11:40:01.365Z,2.12
2018-08-11T11:42:29.605Z,1.87
2018-08-11T11:44:58.564Z,2.92
2018-08-11T11:47:26.930Z,1.72
2018-08-11T11:49:55.419Z,1.07
2018-08-11T11:52:23.707Z,1.10
2018-08-11T11:54:52.021Z,1.92
2018-08-11T11:57:20.412Z,3.55
2018-08-11T11:59:48.883Z,3.10
2018-08-11T12:02:17.124Z,1.37
2018-08-11T12:04:45.522Z,0.98
2018-08-11T12:07:13.901Z,0.60
2018-08-11T12:09:42.328Z,3.95
2018-08-11T12:12:10.815Z,1.07
2018-08-11T12:14:39.081Z,1.77
2018-08-11T12:17:07.632Z,2.72
2018-08-11T12:19:36.290Z,0.98
2018-08-11T12:22:04.775Z,2.08
2018-08-11T12:24:33.181Z,3.27
2018-08-11T12:27:01.725Z,0.60
2018-08-11T12:29:30.045Z,2.47
2018-08-11T12:32:01.375Z,3.12
2018-08-11T12:34:29.706Z,2.33
2018-08-11T12:36:57.988Z,2.85
2018-08-11T12:39:26.339Z,3.12
2018-08-11T12:41:54.892Z,0.98
2018-08-11T12:44:23.586Z,3.75
2018-08-11T12:46:51.934Z,2.95
2018-08-11T12:49:20.970Z,2.85
2018-08-11T12:51:49.245Z,1.20
2018-08-11T12:54:17.784Z,1.22
2018-08-11T12:56:46.386Z,2.20
2018-08-11T12:59:15.047Z,1.52
2018-08-11T13:01:50.030Z,1.60
2018-08-11T13:04:18.326Z,1.52
2018-08-11T13:06:46.604Z,6.97
2018-08-11T13:09:14.973Z,3.72
2018-08-11T13:11:43.262Z,1.98
2018-08-11T13:14:11.544Z,2.80
2018-08-11T13:16:40.583Z,0.82
2018-08-11T13:19:08.874Z,1.12
2018-08-11T13:21:37.335Z,1.52
2018-08-11T13:24:05.679Z,2.42
2018-08-11T13:26:33.932Z,1.10
2018-08-11T13:29:02.208Z,2.75
2018-08-11T13:31:30.536Z,2.40
2018-08-11T13:33:58.936Z,1.98
2018-08-11T13:36:27.234Z,1.57
2018-08-11T13:38:55.499Z,2.08
2018-08-11T13:41:23.961Z,3.65
2018-08-11T13:43:52.274Z,7.83
2018-08-11T13:46:21.253Z,1.02
2018-08-11T13:48:49.648Z,2.47
2018-08-11T13:51:17.916Z,3.02
2018-08-11T13:53:46.268Z,1.45
2018-08-11T13:56:14.991Z,2.62
2018-08-11T13:58:43.256Z,2.15
2018-08-11T14:01:11.546Z,1.37
2018-08-11T14:03:39.845Z,1.90
2018-08-11T14:06:09.139Z,2.37
2018-08-11T14:08:37.426Z,2.00
2018-08-11T14:11:06.446Z,2.85
2018-08-11T14:13:34.816Z,2.45
2018-08-11T14:16:03.369Z,2.25
2018-08-11T14:18:33.056Z,2.10
2018-08-11T14:21:01.666Z,2.42
2018-08-11T14:23:30.091Z,2.12
2018-08-11T14:25:58.409Z,2.27
2018-08-11T14:28:26.778Z,1.15
2018-08-11T14:30:55.097Z,2.45
2018-08-11T14:33:23.369Z,3.52
2018-08-11T14:35:51.717Z,0.98
2018-08-11T14:38:20.049Z,3.27
2018-08-11T14:40:49.151Z,1.72
2018-08-11T14:43:17.446Z,1.42
2018-08-11T14:45:45.928Z,2.20
2018-08-11T14:48:14.286Z,2.77
2018-08-11T14:50:49.225Z,3.33
2018-08-11T14:53:17.539Z,3.37
2018-08-11T14:55:45.819Z,1.02
2018-08-11T14:58:14.104Z,2.30
2018-08-11T15:00:42.413Z,2.42
2018-08-11T15:03:10.694Z,0.40
2018-08-11T15:05:41.882Z,0.82
2018-08-11T15:08:10.266Z,2.40
2018-08-11T15:10:38.521Z,12.15
2018-08-11T15:13:06.942Z,3.02
2018-08-11T15:15:35.261Z,1.90
2018-08-11T15:18:03.565Z,3.55
2018-08-11T15:20:31.872Z,0.75
2018-08-11T15:23:00.172Z,1.60
2018-08-11T15:25:28.522Z,1.22
2018-08-11T15:27:56.875Z,2.45
2018-08-11T15:30:25.107Z,1.52
2018-08-11T15:32:53.438Z,3.58
2018-08-11T15:35:21.945Z,1.30
2018-08-11T15:37:52.277Z,1.47
2018-08-11T15:40:20.870Z,0.78
2018-08-11T15:42:49.271Z,1.20
2018-08-11T15:45:18.389Z,1.20
2018-08-11T15:47:46.696Z,2.00
2018-08-11T15:50:15.170Z,0.62
2018-08-11T15:52:43.603Z,1.35
2018-08-11T15:55:12.138Z,0.90
2018-08-11T15:57:40.570Z,1.60
2018-08-11T16:00:09.577Z,1.57
2018-08-11T16:02:38.516Z,2.12
2018-08-11T16:05:06.983Z,3.15
2018-08-11T16:07:37.746Z,0.57
2018-08-11T16:10:07.368Z,1.72
2018-08-11T16:12:35.865Z,1.77
2018-08-11T16:15:04.412Z,1.37
2018-08-11T16:17:32.758Z,1.00
2018-08-11T16:20:01.104Z,2.40
2018-08-11T16:22:29.381Z,1.62
2018-08-11T16:24:57.690Z,1.32
2018-08-11T16:27:25.945Z,0.95
2018-08-11T16:29:54.232Z,1.37
2018-08-11T16:32:22.496Z,1.45
2018-08-11T16:34:50.815Z,2.98
2018-08-11T16:37:19.083Z,3.37
2018-08-11T16:39:47.420Z,3.10
2018-08-11T16:42:15.756Z,0.68
2018-08-11T16:44:44.726Z,1.98
2018-08-11T16:47:13.096Z,2.58
2018-08-11T16:49:41.352Z,1.75
2018-08-11T16:52:09.613Z,1.82
2018-08-11T16:54:37.935Z,0.93
2018-08-11T16:57:06.285Z,1.02
2018-08-11T16:59:34.790Z,2.00
2018-08-11T17:02:03.111Z,1.60
2018-08-11T17:04:31.469Z,1.65
2018-08-11T17:06:59.759Z,1.90
2018-08-11T17:09:28.679Z,1.75
2018-08-11T17:12:00.587Z,1.25
2018-08-11T17:14:31.694Z,0.93
2018-08-11T17:17:03.546Z,2.52
2018-08-11T17:19:33.616Z,2.75
2018-08-11T17:22:05.871Z,1.55
2018-08-11T17:24:40.517Z,1.07
2018-08-11T17:27:09.054Z,1.20
2018-08-11T17:29:37.351Z,1.82
2018-08-11T17:32:05.768Z,1.45
2018-08-11T17:34:35.259Z,1.77
2018-08-11T17:37:03.662Z,1.92
2018-08-11T17:39:32.078Z,1.35
2018-08-11T17:42:00.437Z,2.80
2018-08-11T17:44:28.865Z,1.47
2018-08-11T17:46:57.211Z,2.10
2018-08-11T17:49:25.996Z,1.77
2018-08-11T17:51:54.321Z,2.10
2018-08-11T17:54:22.782Z,1.15
2018-08-11T17:56:51.349Z,1.10
2018-08-11T17:59:19.654Z,1.82
2018-08-11T18:01:47.991Z,0.65
2018-08-11T18:04:16.259Z,0.47
2018-08-11T18:06:45.349Z,0.82
2018-08-11T18:09:14.333Z,0.95
2018-08-11T18:11:42.789Z,0.57
2018-08-11T18:14:12.412Z,2.10
2018-08-11T18:16:40.811Z,2.00
2018-08-11T18:19:09.592Z,1.32
2018-08-11T18:21:38.028Z,1.20
2018-08-11T18:24:07.505Z,2.62
2018-08-11T18:26:36.093Z,3.90
2018-08-11T18:29:05.273Z,1.82
2018-08-11T18:31:33.761Z,2.98
2018-08-11T18:34:02.108Z,3.65
2018-08-11T18:36:30.394Z,2.62
2018-08-11T18:38:59.006Z,2.25
2018-08-11T18:41:28.719Z,2.40
2018-08-11T18:43:57.233Z,1.55
2018-08-11T18:46:25.645Z,3.22
2018-08-11T18:48:53.913Z,1.52
2018-08-11T18:51:22.232Z,0.68
2018-08-11T18:53:51.653Z,1.75
2018-08-11T18:56:20.594Z,1.25
2018-08-11T18:58:48.919Z,0.70
2018-08-11T19:01:17.232Z,1.85
2018-08-11T19:03:45.568Z,2.75
2018-08-11T19:06:13.825Z,1.47
2018-08-11T19:08:42.461Z,1.42
2018-08-11T19:11:11.022Z,0.72
2018-08-11T19:13:39.713Z,1.30
2018-08-11T19:16:08.096Z,1.15
2018-08-11T19:18:36.948Z,3.08
2018-08-11T19:21:05.285Z,3.08
2018-08-11T19:23:33.563Z,2.92
2018-08-11T19:26:02.027Z,0.90
2018-08-11T19:28:30.139Z,0.95
2018-08-11T19:30:58.447Z,3.22
2018-08-11T19:33:26.761Z,1.20
2018-08-11T19:35:55.094Z,2.40
2018-08-11T19:38:23.378Z,6.25
2018-08-11T19:40:51.727Z,9.05
2018-08-11T19:43:20.557Z,7.45
2018-08-11T19:45:48.893Z,4.30
2018-08-11T19:48:17.313Z,3.42
2018-08-11T19:50:45.590Z,2.35
2018-08-11T19:53:13.863Z,2.27
2018-08-11T19:55:42.108Z,2.92
2018-08-11T19:58:11.138Z,2.58
2018-08-11T20:00:39.393Z,1.80
2018-08-11T20:03:07.773Z,1.30
2018-08-11T20:05:36.048Z,1.45
2018-08-11T20:08:04.341Z,2.15
2018-08-11T20:10:32.602Z,1.80
2018-08-11T20:13:00.880Z,1.77
2018-08-11T20:15:29.188Z,3.40
2018-08-11T20:17:57.431Z,2.02
2018-08-11T20:20:25.699Z,3.08
2018-08-11T20:22:54.005Z,3.00
2018-08-11T20:25:22.304Z,4.67
2018-08-11T20:27:50.587Z,3.83
2018-08-11T20:30:18.862Z,2.00
2018-08-11T20:32:47.124Z,2.05
2018-08-11T20:35:15.372Z,2.10
2018-08-11T20:37:43.629Z,2.30
2018-08-11T20:40:12.573Z,2.72
2018-08-11T20:42:40.813Z,1.85
2018-08-11T20:45:09.841Z,1.95
2018-08-11T20:47:38.120Z,1.30
2018-08-11T20:50:06.998Z,3.27
2018-08-11T20:52:35.299Z,1.57
2018-08-11T20:55:04.052Z,1.70
2018-08-11T20:57:32.283Z,1.40
2018-08-11T21:00:00.665Z,1.87
2018-08-11T21:02:28.995Z,2.72
2018-08-11T21:04:57.245Z,2.90
2018-08-11T21:07:25.520Z,2.60
2018-08-11T21:09:53.754Z,2.33
2018-08-11T21:12:22.144Z,2.40
2018-08-11T21:14:50.588Z,3.35
2018-08-11T21:17:18.842Z,2.98
2018-08-11T21:19:47.107Z,2.83
2018-08-11T21:22:15.418Z,2.60
2018-08-11T21:24:50.445Z,4.42
2018-08-11T21:27:18.705Z,3.17
2018-08-11T21:29:47.113Z,3.40
2018-08-11T21:32:15.370Z,2.90
2018-08-11T21:34:43.664Z,3.05
2018-08-11T21:37:11.954Z,1.90
2018-08-11T21:39:40.230Z,3.05
2018-08-11T21:42:08.577Z,3.47
2018-08-11T21:44:36.967Z,2.92
2018-08-11T21:47:05.295Z,2.92
2018-08-11T21:49:33.532Z,6.05
2018-08-11T21:52:01.797Z,5.85
2018-08-11T21:54:30.034Z,4.55
2018-08-11T21:56:58.336Z,4.22
2018-08-11T21:59:26.623Z,3.80
2018-08-11T22:01:54.895Z,2.77
2018-08-11T22:04:27.525Z,4.78
2018-08-11T22:09:35.887Z,4.78
2018-08-11T22:12:05.005Z,3.45
2018-08-11T22:14:33.428Z,3.30
2018-08-11T22:17:02.035Z,2.80
2018-08-11T22:19:30.333Z,3.58
2018-08-11T22:21:58.683Z,2.65
2018-08-11T22:24:26.947Z,2.65
2018-08-11T22:26:55.172Z,2.65
2018-08-11T22:29:23.442Z,2.60
2018-08-11T22:31:51.722Z,3.30
2018-08-11T22:34:20.052Z,2.42
2018-08-11T22:36:48.322Z,5.55
2018-08-11T22:39:16.562Z,2.80
2018-08-11T22:41:44.794Z,3.22
2018-08-11T22:44:13.029Z,2.58
2018-08-11T22:46:41.281Z,3.12
2018-08-11T22:49:09.542Z,2.90
2018-08-11T22:51:37.788Z,6.20
2018-08-11T22:54:06.092Z,3.72
2018-08-11T22:56:34.395Z,4.03
2018-08-11T22:59:02.671Z,6.17
2018-08-11T23:01:30.946Z,4.45
2018-08-11T23:03:59.247Z,4.08
2018-08-11T23:06:27.605Z,5.22
2018-08-11T23:08:55.894Z,4.37
2018-08-11T23:11:24.207Z,7.33
2018-08-11T23:13:52.540Z,3.83
2018-08-11T23:16:20.820Z,4.92
2018-08-11T23:18:49.055Z,4.67
2018-08-11T23:21:17.323Z,4.53
2018-08-11T23:23:45.904Z,5.10
2018-08-11T23:26:14.241Z,4.80
2018-08-11T23:28:43.340Z,4.87
2018-08-11T23:31:11.642Z,4.60
2018-08-11T23:33:39.908Z,4.75
2018-08-11T23:36:08.401Z,4.85
2018-08-11T23:38:36.677Z,4.85
2018-08-11T23:41:04.920Z,6.85
2018-08-11T23:43:33.370Z,5.47
2018-08-11T23:46:01.634Z,3.50
2018-08-11T23:48:29.904Z,4.92
2018-08-11T23:50:58.130Z,3.05
2018-08-11T23:53:26.369Z,4.05
2018-08-11T23:55:54.629Z,4.45
2018-08-11T23:58:22.939Z,4.58
